createdAt,value
2023-04-03T00:00:33.305Z,0.00
2023-04-03T00:01:34.397Z,0.00
2023-04-03T00:02:35.040Z,0.00
2023-04-03T00:03:35.316Z,0.00
2023-04-03T00:04:35.219Z,0.00
2023-04-03T00:05:35.458Z,0.00
2023-04-03T00:06:36.842Z,0.00
2023-04-03T00:07:35.119Z,0.00
2023-04-03T00:08:36.579Z,0.00
2023-04-03T00:09:36.899Z,0.00
2023-04-03T00:10:36.412Z,0.00
2023-04-03T00:11:37.044Z,0.00
2023-04-03T00:12:36.537Z,0.00
2023-04-03T00:13:37.532Z,0.00
2023-04-03T00:14:36.907Z,0.00
2023-04-03T00:15:37.285Z,0.00
2023-04-03T00:16:39.604Z,0.00
2023-04-03T00:17:38.112Z,0.00
2023-04-03T00:18:39.223Z,0.00
2023-04-03T00:19:38.835Z,0.00
2023-04-03T00:21:26.673Z,0.00
2023-04-03T00:22:25.893Z,0.00
2023-04-03T00:23:26.169Z,0.00
2023-04-03T00:24:28.410Z,0.00
2023-04-03T00:25:29.119Z,0.00
2023-04-03T00:26:27.739Z,0.00
2023-04-03T00:27:27.902Z,0.00
2023-04-03T00:28:27.130Z,0.00
2023-04-03T00:29:27.342Z,0.00
2023-04-03T00:30:29.038Z,0.00
2023-04-03T00:31:28.786Z,0.00
2023-04-03T00:32:28.088Z,0.00
2023-04-03T00:33:29.547Z,0.00
2023-04-03T00:34:28.216Z,0.00
2023-04-03T00:35:29.496Z,0.00
2023-04-03T00:36:30.475Z,0.00
2023-04-03T00:37:30.724Z,0.00
2023-04-03T00:38:29.159Z,0.00
2023-04-03T00:39:29.438Z,0.00
2023-04-03T00:40:30.890Z,0.00
2023-04-03T00:41:30.131Z,0.00
2023-04-03T00:42:30.512Z,0.00
2023-04-03T00:43:30.879Z,0.00
2023-04-03T00:44:31.117Z,0.00
2023-04-03T00:45:31.454Z,0.00
2023-04-03T00:46:31.922Z,0.00
2023-04-03T00:47:34.954Z,0.00
2023-04-03T00:48:32.309Z,0.00
2023-04-03T00:49:32.793Z,0.00
2023-04-03T00:50:34.480Z,0.00
2023-04-03T00:51:33.340Z,0.00
2023-04-03T00:52:37.558Z,0.00
2023-04-03T00:53:34.508Z,0.00
2023-04-03T00:54:34.644Z,0.00
2023-04-03T00:55:33.895Z,0.00
2023-04-03T00:56:35.619Z,0.00
2023-04-03T00:57:34.583Z,0.00
2023-04-03T00:58:34.757Z,0.00
2023-04-03T00:59:34.795Z,0.00
2023-04-03T01:00:34.857Z,0.00
2023-04-03T01:01:35.253Z,0.00
2023-04-03T01:02:42.591Z,0.00
2023-04-03T01:03:35.272Z,0.00
2023-04-03T01:04:35.583Z,0.00
2023-04-03T01:05:36.057Z,0.00
2023-04-03T01:06:38.635Z,0.00
2023-04-03T01:07:36.304Z,0.00
2023-04-03T01:08:37.474Z,0.00
2023-04-03T01:09:37.131Z,0.00
2023-04-03T01:10:38.962Z,0.00
2023-04-03T01:11:38.865Z,0.00
2023-04-03T01:12:37.050Z,0.00
2023-04-03T01:13:37.371Z,0.00
2023-04-03T01:14:39.930Z,0.00
2023-04-03T01:15:37.567Z,0.00
2023-04-03T01:16:38.125Z,0.00
2023-04-03T01:17:38.336Z,0.00
2023-04-03T01:18:39.562Z,0.00
2023-04-03T01:19:40.960Z,0.00
2023-04-03T01:20:40.305Z,0.00
2023-04-03T01:21:39.500Z,0.00
2023-04-03T01:22:39.674Z,0.00
2023-04-03T01:23:39.910Z,0.00
2023-04-03T01:24:40.214Z,0.00
2023-04-03T01:25:41.435Z,0.00
2023-04-03T01:26:40.630Z,0.00
2023-04-03T01:27:41.733Z,0.00
2023-04-03T01:28:42.342Z,0.00
2023-04-03T01:29:41.945Z,0.00
2023-04-03T01:30:41.428Z,0.00
2023-04-03T01:31:41.132Z,0.00
2023-04-03T01:32:42.577Z,0.00
2023-04-03T01:33:41.765Z,0.00
2023-04-03T01:34:42.013Z,0.00
2023-04-03T01:35:42.255Z,0.00
2023-04-03T01:36:43.411Z,0.00
2023-04-03T01:37:42.593Z,0.00
2023-04-03T01:38:42.844Z,0.00
2023-04-03T01:39:44.038Z,0.00
2023-04-03T01:40:45.510Z,0.00
2023-04-03T01:41:45.666Z,0.00
2023-04-03T01:42:43.801Z,0.00
2023-04-03T01:43:43.966Z,0.00
2023-04-03T01:44:44.146Z,0.00
2023-04-03T01:45:46.244Z,0.00
2023-04-03T01:46:45.467Z,0.00
2023-04-03T01:47:44.646Z,0.00
2023-04-03T01:48:46.945Z,0.00
2023-04-03T01:49:46.144Z,0.00
2023-04-03T01:50:45.332Z,0.00
2023-04-03T01:51:45.494Z,0.00
2023-04-03T01:52:45.688Z,0.00
2023-04-03T01:53:45.868Z,0.00
2023-04-03T01:54:46.021Z,0.00
2023-04-03T01:55:47.779Z,0.00
2023-04-03T01:56:46.582Z,0.00
2023-04-03T01:57:48.683Z,0.00
2023-04-03T01:58:46.857Z,0.00
2023-04-03T01:59:47.153Z,0.00
2023-04-03T02:00:49.403Z,0.00
2023-04-03T02:01:48.947Z,0.00
2023-04-03T02:02:48.230Z,0.00
2023-04-03T02:03:48.860Z,0.00
2023-04-03T02:04:48.562Z,0.00
2023-04-03T02:05:51.256Z,0.00
2023-04-03T02:06:49.324Z,0.00
2023-04-03T02:07:50.919Z,0.00
2023-04-03T02:08:49.069Z,0.00
2023-04-03T02:09:53.284Z,0.00
2023-04-03T02:10:49.480Z,0.00
2023-04-03T02:11:51.253Z,0.00
2023-04-03T02:12:50.858Z,0.00
2023-04-03T02:13:50.062Z,0.00
2023-04-03T02:14:50.220Z,0.00
2023-04-03T02:15:50.437Z,0.00
2023-04-03T02:16:51.655Z,0.00
2023-04-03T02:17:50.929Z,0.00
2023-04-03T02:18:51.093Z,0.00
2023-04-03T02:19:53.229Z,0.00
2023-04-03T02:20:52.822Z,0.00
2023-04-03T02:21:51.556Z,0.00
2023-04-03T02:22:51.695Z,0.00
2023-04-03T02:23:54.804Z,0.00
2023-04-03T02:24:52.919Z,0.00
2023-04-03T02:25:55.207Z,0.00
2023-04-03T02:26:52.362Z,0.00
2023-04-03T02:27:54.002Z,0.00
2023-04-03T02:28:57.086Z,0.00
2023-04-03T02:29:53.851Z,0.00
2023-04-03T02:30:54.989Z,0.00
2023-04-03T02:31:54.662Z,0.00
2023-04-03T02:32:53.339Z,0.00
2023-04-03T02:33:53.595Z,0.00
2023-04-03T02:34:53.864Z,0.00
2023-04-03T02:35:56.910Z,0.00
2023-04-03T02:36:56.630Z,0.00
2023-04-03T02:37:54.584Z,0.00
2023-04-03T02:38:54.767Z,0.00
2023-04-03T02:39:55.931Z,0.00
2023-04-03T02:40:55.123Z,0.00
2023-04-03T02:41:57.280Z,0.00
2023-04-03T02:42:55.451Z,0.00
2023-04-03T02:43:55.624Z,0.00
2023-04-03T02:44:59.461Z,0.00
2023-04-03T02:45:56.248Z,0.00
2023-04-03T02:46:56.492Z,0.00
2023-04-03T02:47:56.741Z,0.00
2023-04-03T02:48:58.920Z,0.00
2023-04-03T02:49:59.086Z,0.00
2023-04-03T02:50:58.224Z,0.00
2023-04-03T02:51:58.440Z,0.00
2023-04-03T02:52:58.021Z,0.00
2023-04-03T02:53:59.147Z,0.00
2023-04-03T02:54:57.892Z,0.00
2023-04-03T02:55:59.050Z,0.00
2023-04-03T02:56:59.272Z,0.00
2023-04-03T02:58:00.562Z,0.00
2023-04-03T02:59:00.273Z,0.00
2023-04-03T03:00:00.892Z,0.00
2023-04-03T03:01:00.039Z,0.00
2023-04-03T03:01:59.910Z,0.00
2023-04-03T03:02:59.297Z,0.00
2023-04-03T03:03:59.525Z,0.00
2023-04-03T03:04:59.760Z,0.00
2023-04-03T03:06:07.181Z,0.00
2023-04-03T03:07:00.928Z,0.00
2023-04-03T03:08:02.244Z,0.00
2023-04-03T03:09:00.464Z,0.00
2023-04-03T03:10:01.874Z,0.00
2023-04-03T03:11:01.266Z,0.00
2023-04-03T03:12:02.031Z,0.00
2023-04-03T03:13:04.693Z,0.00
2023-04-03T03:14:02.243Z,0.00
2023-04-03T03:15:02.972Z,0.00
2023-04-03T03:16:02.658Z,0.00
2023-04-03T03:17:02.708Z,0.00
2023-04-03T03:18:03.502Z,0.00
2023-04-03T03:19:03.566Z,0.00
2023-04-03T03:20:03.827Z,0.00
2023-04-03T03:21:03.500Z,0.00
2023-04-03T03:22:04.306Z,0.00
2023-04-03T03:23:04.377Z,0.00
2023-04-03T03:24:06.036Z,0.00
2023-04-03T03:25:04.679Z,0.00
2023-04-03T03:26:04.942Z,0.00
2023-04-03T03:27:05.122Z,0.00
2023-04-03T03:28:06.413Z,0.00
2023-04-03T03:29:05.124Z,0.00
2023-04-03T03:30:06.836Z,0.00
2023-04-03T03:31:07.310Z,0.00
2023-04-03T03:32:06.777Z,0.00
2023-04-03T03:33:07.664Z,0.00
2023-04-03T03:34:07.687Z,0.00
2023-04-03T03:35:08.630Z,0.00
2023-04-03T03:36:09.968Z,0.00
2023-04-03T03:37:08.493Z,0.00
2023-04-03T03:38:08.920Z,0.00
2023-04-03T03:39:08.845Z,0.00
2023-04-03T03:40:08.340Z,0.00
2023-04-03T03:41:09.376Z,0.00
2023-04-03T03:42:09.310Z,0.00
2023-04-03T03:43:10.261Z,0.00
2023-04-03T03:44:09.974Z,0.00
2023-04-03T03:45:10.896Z,0.00
2023-04-03T03:46:10.461Z,0.00
2023-04-03T03:47:12.338Z,0.00
2023-04-03T03:48:10.762Z,0.00
2023-04-03T03:49:10.992Z,0.00
2023-04-03T03:50:11.316Z,0.00
2023-04-03T03:51:11.075Z,0.00
2023-04-03T03:52:11.152Z,0.00
2023-04-03T03:53:12.145Z,0.00
2023-04-03T03:54:12.203Z,0.00
2023-04-03T03:55:12.580Z,0.00
2023-04-03T03:56:13.230Z,0.00
2023-04-03T03:57:12.972Z,0.00
2023-04-03T03:58:12.815Z,0.00
2023-04-03T03:59:13.626Z,0.00
2023-04-03T04:00:14.765Z,0.00
2023-04-03T04:01:13.067Z,0.00
2023-04-03T04:02:13.390Z,0.00
2023-04-03T04:03:14.057Z,0.00
2023-04-03T04:04:14.538Z,0.00
2023-04-03T04:05:15.632Z,0.00
2023-04-03T04:06:16.450Z,0.00
2023-04-03T04:07:14.971Z,0.00
2023-04-03T04:08:15.727Z,0.00
2023-04-03T04:09:15.825Z,0.00
2023-04-03T04:10:16.216Z,0.00
2023-04-03T04:11:15.123Z,0.00
2023-04-03T04:12:16.266Z,1.00
2023-04-03T04:13:17.137Z,1.00
2023-04-03T04:14:16.192Z,0.00
2023-04-03T04:15:16.051Z,0.00
2023-04-03T04:16:16.859Z,1.00
2023-04-03T04:17:17.129Z,0.00
2023-04-03T04:18:17.376Z,1.00
2023-04-03T04:19:17.262Z,1.00
2023-04-03T04:20:17.658Z,2.00
2023-04-03T04:21:18.349Z,2.00
2023-04-03T04:22:18.345Z,3.00
2023-04-03T04:23:18.598Z,3.00
2023-04-03T04:24:19.100Z,3.00
2023-04-03T04:25:24.898Z,4.00
2023-04-03T04:26:21.739Z,5.00
2023-04-03T04:27:20.220Z,6.00
2023-04-03T04:28:22.190Z,7.00
2023-04-03T04:29:20.844Z,9.00
2023-04-03T04:30:21.555Z,10.00
2023-04-03T04:31:21.187Z,12.00
2023-04-03T04:32:20.989Z,14.00
2023-04-03T04:33:21.448Z,17.00
2023-04-03T04:34:22.557Z,20.00
2023-04-03T04:35:25.530Z,24.00
2023-04-03T04:36:23.379Z,28.00
2023-04-03T04:37:22.295Z,33.00
2023-04-03T04:38:22.671Z,40.00
2023-04-03T04:39:23.311Z,47.00
2023-04-03T04:40:23.487Z,55.00
2023-04-03T04:41:23.698Z,64.00
2023-04-03T04:42:24.552Z,74.00
2023-04-03T04:43:24.216Z,86.00
2023-04-03T04:44:24.785Z,99.00
2023-04-03T04:45:25.055Z,113.00
2023-04-03T04:46:25.085Z,129.00
2023-04-03T04:47:25.759Z,146.00
2023-04-03T04:48:25.807Z,165.00
2023-04-03T04:49:27.281Z,186.00
2023-04-03T04:50:25.839Z,209.00
2023-04-03T04:51:26.315Z,233.00
2023-04-03T04:52:26.766Z,258.00
2023-04-03T04:53:28.124Z,286.00
2023-04-03T04:54:30.131Z,315.00
2023-04-03T04:55:28.694Z,347.00
2023-04-03T04:56:29.240Z,379.00
2023-04-03T04:57:30.251Z,414.00
2023-04-03T04:58:28.478Z,450.00
2023-04-03T04:59:30.453Z,487.00
2023-04-03T05:00:30.099Z,526.00
2023-04-03T05:01:30.349Z,565.00
2023-04-03T05:02:29.655Z,607.00
2023-04-03T05:03:29.653Z,649.00
2023-04-03T05:04:31.180Z,692.00
2023-04-03T05:05:32.135Z,737.00
2023-04-03T05:06:31.480Z,781.00
2023-04-03T05:07:31.263Z,828.00
2023-04-03T05:08:32.356Z,877.00
2023-04-03T05:09:31.612Z,928.00
2023-04-03T05:10:32.523Z,977.00
2023-04-03T05:11:31.984Z,1026.00
2023-04-03T05:12:32.283Z,1080.00
2023-04-03T05:13:32.688Z,1139.00
2023-04-03T05:14:33.024Z,1194.00
2023-04-03T05:15:33.916Z,1252.00
2023-04-03T05:16:33.873Z,1307.00
2023-04-03T05:17:33.952Z,1361.00
2023-04-03T05:18:34.023Z,1414.00
2023-04-03T05:19:33.932Z,1475.00
2023-04-03T05:20:34.368Z,1583.00
2023-04-03T05:21:36.618Z,1699.00
2023-04-03T05:22:35.217Z,1769.00
2023-04-03T05:23:35.240Z,1839.00
2023-04-03T05:24:35.612Z,1909.00
2023-04-03T05:25:36.208Z,1978.00
2023-04-03T05:26:35.942Z,2046.00
2023-04-03T05:27:36.119Z,2113.00
2023-04-03T05:28:36.371Z,2195.00
2023-04-03T05:29:36.452Z,2249.00
2023-04-03T05:30:37.317Z,2318.00
2023-04-03T05:31:40.200Z,2389.00
2023-04-03T05:32:37.155Z,2461.00
2023-04-03T05:33:37.509Z,2529.00
2023-04-03T05:34:38.732Z,2597.00
2023-04-03T05:35:39.933Z,2670.00
2023-04-03T05:36:39.794Z,2743.00
2023-04-03T05:37:38.828Z,2814.00
2023-04-03T05:38:39.511Z,2887.00
2023-04-03T05:39:40.307Z,2955.00
2023-04-03T05:40:39.674Z,3021.00
2023-04-03T05:41:41.318Z,3098.00
2023-04-03T05:42:39.893Z,3173.00
2023-04-03T05:43:40.575Z,3245.00
2023-04-03T05:44:40.483Z,3308.00
2023-04-03T05:45:41.955Z,3377.00
2023-04-03T05:46:41.241Z,3463.00
2023-04-03T05:47:41.585Z,3545.00
2023-04-03T05:48:41.785Z,3626.00
2023-04-03T05:49:42.034Z,3690.00
2023-04-03T05:50:41.927Z,3749.00
2023-04-03T05:51:43.204Z,3805.00
2023-04-03T05:52:42.557Z,3870.00
2023-04-03T05:53:43.032Z,3949.00
2023-04-03T05:54:43.383Z,4035.00
2023-04-03T05:55:43.518Z,4114.00
2023-04-03T05:56:43.842Z,4188.00
2023-04-03T05:57:45.537Z,4261.00
2023-04-03T05:58:44.481Z,4330.00
2023-04-03T05:59:46.286Z,4395.00
2023-04-03T06:00:45.705Z,4465.00
2023-04-03T06:01:45.463Z,4545.00
2023-04-03T06:02:45.714Z,4644.00
2023-04-03T06:03:45.942Z,4727.00
2023-04-03T06:04:47.341Z,4808.00
2023-04-03T06:05:48.028Z,4900.00
2023-04-03T06:06:47.493Z,4986.00
2023-04-03T06:07:46.868Z,5056.00
2023-04-03T06:08:47.631Z,5146.00
2023-04-03T06:09:47.871Z,5229.00
2023-04-03T06:10:48.009Z,5326.00
2023-04-03T06:11:48.376Z,5402.00
2023-04-03T06:12:49.011Z,5488.00
2023-04-03T06:13:49.348Z,5596.00
2023-04-03T06:14:50.701Z,5732.00
2023-04-03T06:15:50.925Z,5901.00
2023-04-03T06:16:49.303Z,6067.00
2023-04-03T06:17:50.588Z,6192.00
2023-04-03T06:18:49.981Z,6273.00
2023-04-03T06:19:50.246Z,6376.00
2023-04-03T06:20:50.541Z,6504.00
2023-04-03T06:21:51.341Z,6620.00
2023-04-03T06:22:52.847Z,6748.00
2023-04-03T06:23:52.478Z,6776.00
2023-04-03T06:24:52.573Z,6784.00
2023-04-03T06:25:53.145Z,6990.00
2023-04-03T06:26:53.009Z,7251.00
2023-04-03T06:27:53.014Z,7491.00
2023-04-03T06:28:52.746Z,7460.00
2023-04-03T06:29:53.600Z,7454.00
2023-04-03T06:30:53.195Z,7604.00
2023-04-03T06:31:54.710Z,7988.00
2023-04-03T06:32:53.307Z,8263.00
2023-04-03T06:33:53.709Z,8483.00
2023-04-03T06:35:54.335Z,8245.00
2023-04-03T06:36:57.193Z,8395.00
2023-04-03T06:37:55.426Z,8684.00
2023-04-03T06:38:56.455Z,8995.00
2023-04-03T06:39:55.911Z,9371.00
2023-04-03T06:40:56.221Z,9774.00
2023-04-03T06:41:56.154Z,9763.00
2023-04-03T06:42:57.514Z,9721.00
2023-04-03T06:43:57.826Z,9902.00
2023-04-03T06:44:58.448Z,10258.00
2023-04-03T06:45:59.797Z,10468.00
2023-04-03T06:46:58.246Z,10423.00
2023-04-03T06:47:57.877Z,10383.00
2023-04-03T06:48:58.741Z,10287.00
2023-04-03T06:49:59.794Z,10286.00
2023-04-03T06:50:59.153Z,10113.00
2023-04-03T06:51:59.301Z,10542.00
2023-04-03T06:52:58.596Z,11028.00
2023-04-03T06:53:59.230Z,11542.00
2023-04-03T06:55:00.256Z,12092.00
2023-04-03T06:55:59.113Z,12356.00
2023-04-03T06:56:59.447Z,12963.00
2023-04-03T06:58:00.254Z,12818.00
2023-04-03T06:59:00.074Z,11587.00
2023-04-03T07:00:05.007Z,11453.00
2023-04-03T07:01:01.079Z,12026.00
2023-04-03T07:02:02.800Z,12803.00
2023-04-03T07:03:01.391Z,13840.00
2023-04-03T07:04:01.334Z,14175.00
2023-04-03T07:05:01.940Z,14331.00
2023-04-03T07:06:17.772Z,14554.00
2023-04-03T07:07:02.628Z,14625.00
2023-04-03T07:08:02.989Z,14951.00
2023-04-03T07:09:03.105Z,14719.00
2023-04-03T07:10:03.097Z,14726.00
2023-04-03T07:11:03.339Z,14254.00
2023-04-03T07:12:03.809Z,14334.00
2023-04-03T07:13:04.244Z,14471.00
2023-04-03T07:14:04.577Z,15144.00
2023-04-03T07:15:05.931Z,15314.00
2023-04-03T07:16:07.781Z,16768.00
2023-04-03T07:17:05.512Z,17416.00
2023-04-03T07:18:05.947Z,17520.00
2023-04-03T07:19:07.670Z,18336.00
2023-04-03T07:20:06.424Z,19104.00
2023-04-03T07:21:06.186Z,19976.00
2023-04-03T07:22:06.375Z,19720.00
2023-04-03T07:23:06.762Z,19872.00
2023-04-03T07:24:10.028Z,21120.00
2023-04-03T07:25:08.207Z,21000.00
2023-04-03T07:26:08.471Z,21656.00
2023-04-03T07:27:09.152Z,22440.00
2023-04-03T07:28:08.281Z,21440.00
2023-04-03T07:29:09.393Z,22272.00
2023-04-03T07:30:09.811Z,20584.00
2023-04-03T07:31:10.762Z,19888.00
2023-04-03T07:32:09.542Z,21264.00
2023-04-03T07:33:11.888Z,20520.00
2023-04-03T07:34:10.405Z,19976.00
2023-04-03T07:35:11.450Z,21968.00
2023-04-03T07:36:13.422Z,22424.00
2023-04-03T07:37:10.525Z,20928.00
2023-04-03T07:38:11.629Z,22976.00
2023-04-03T07:39:10.804Z,22784.00
2023-04-03T07:40:12.161Z,23464.00
2023-04-03T07:41:11.209Z,23976.00
2023-04-03T07:42:12.215Z,22064.00
2023-04-03T07:43:12.558Z,23536.00
2023-04-03T07:44:12.161Z,26312.00
2023-04-03T07:45:12.465Z,24832.00
2023-04-03T07:46:12.265Z,23896.00
2023-04-03T07:47:12.617Z,23400.00
2023-04-03T07:48:13.073Z,25720.00
2023-04-03T07:49:13.812Z,26536.00
2023-04-03T07:50:14.267Z,25200.00
2023-04-03T07:51:14.181Z,25440.00
2023-04-03T07:52:14.175Z,24096.00
2023-04-03T07:53:15.081Z,22752.00
2023-04-03T07:54:14.937Z,23712.00
2023-04-03T07:55:14.616Z,24784.00
2023-04-03T07:56:16.080Z,25680.00
2023-04-03T07:57:15.027Z,25976.00
2023-04-03T07:58:14.897Z,24976.00
2023-04-03T07:59:15.175Z,23472.00
2023-04-03T08:00:15.567Z,24792.00
2023-04-03T08:01:15.803Z,26344.00
2023-04-03T08:02:16.252Z,25352.00
2023-04-03T08:03:18.013Z,23848.00
2023-04-03T08:04:21.304Z,25040.00
2023-04-03T08:05:16.754Z,27312.00
2023-04-03T08:06:26.163Z,25600.00
2023-04-03T08:07:16.993Z,25136.00
2023-04-03T08:08:19.817Z,25472.00
2023-04-03T08:09:19.253Z,26856.00
2023-04-03T08:10:18.036Z,27624.00
2023-04-03T08:11:19.333Z,27992.00
2023-04-03T08:12:18.616Z,27712.00
2023-04-03T08:13:19.041Z,26848.00
2023-04-03T08:14:21.107Z,28024.00
2023-04-03T08:15:19.496Z,30384.00
2023-04-03T08:16:20.109Z,31776.00
2023-04-03T08:17:20.065Z,33112.00
2023-04-03T08:18:20.668Z,33552.00
2023-04-03T08:19:26.053Z,32064.00
2023-04-03T08:20:21.329Z,34024.00
2023-04-03T08:21:21.951Z,33264.00
2023-04-03T08:22:21.297Z,30416.00
2023-04-03T08:23:21.576Z,28656.00
2023-04-03T08:24:22.837Z,28928.00
2023-04-03T08:25:22.278Z,30896.00
2023-04-03T08:26:22.986Z,30384.00
2023-04-03T08:27:22.413Z,27592.00
2023-04-03T08:28:22.179Z,26312.00
2023-04-03T08:29:24.476Z,26168.00
2023-04-03T08:30:22.841Z,26976.00
2023-04-03T08:31:24.608Z,27648.00
2023-04-03T08:32:24.219Z,27064.00
2023-04-03T08:33:23.592Z,27496.00
2023-04-03T08:34:24.728Z,28872.00
2023-04-03T08:35:26.342Z,32296.00
2023-04-03T08:36:26.222Z,37928.00
2023-04-03T08:37:24.292Z,39688.00
2023-04-03T08:38:24.858Z,38232.00
2023-04-03T08:39:26.047Z,36880.00
2023-04-03T08:40:24.949Z,33248.00
2023-04-03T08:41:25.185Z,35664.00
2023-04-03T08:42:31.609Z,38928.00
2023-04-03T08:43:25.785Z,37712.00
2023-04-03T08:44:26.087Z,37776.00
2023-04-03T08:45:28.271Z,37392.00
2023-04-03T08:46:26.784Z,37144.00
2023-04-03T08:47:28.440Z,39176.00
2023-04-03T08:48:27.709Z,40584.00
2023-04-03T08:49:28.223Z,41512.00
2023-04-03T08:50:29.395Z,40008.00
2023-04-03T08:51:28.301Z,37744.00
2023-04-03T08:52:28.404Z,38480.00
2023-04-03T08:53:28.814Z,41296.00
2023-04-03T08:54:30.035Z,39672.00
2023-04-03T08:55:29.527Z,39800.00
2023-04-03T08:56:29.379Z,38720.00
2023-04-03T08:57:31.115Z,35792.00
2023-04-03T08:58:29.776Z,33008.00
2023-04-03T08:59:31.971Z,31536.00
2023-04-03T09:00:31.045Z,6002.00
2023-04-03T09:01:30.227Z,32608.00
2023-04-03T09:02:32.473Z,31200.00
2023-04-03T09:03:30.707Z,30432.00
2023-04-03T09:04:33.117Z,30384.00
2023-04-03T09:05:31.651Z,29056.00
2023-04-03T09:06:34.929Z,29544.00
2023-04-03T09:07:33.892Z,29608.00
2023-04-03T09:08:33.196Z,29400.00
2023-04-03T09:09:32.595Z,30792.00
2023-04-03T09:10:32.897Z,36232.00
2023-04-03T09:11:33.088Z,44032.00
2023-04-03T09:12:33.641Z,13761.00
2023-04-03T09:13:34.329Z,18128.00
2023-04-03T09:14:33.677Z,8627.00
2023-04-03T09:15:39.531Z,60040.00
2023-04-03T09:16:38.233Z,50544.00
2023-04-03T09:17:35.436Z,42160.00
2023-04-03T09:18:34.675Z,37208.00
2023-04-03T09:19:34.903Z,33408.00
2023-04-03T09:20:35.059Z,45432.00
2023-04-03T09:21:35.497Z,46520.00
2023-04-03T09:22:42.199Z,50464.00
2023-04-03T09:23:35.783Z,62536.00
2023-04-03T09:24:36.014Z,65535.00
2023-04-03T09:25:36.192Z,53032.00
2023-04-03T09:26:36.402Z,58792.00
2023-04-03T09:27:36.652Z,65535.00
2023-04-03T09:28:43.047Z,65535.00
2023-04-03T09:29:36.897Z,65535.00
2023-04-03T09:30:37.391Z,65535.00
2023-04-03T09:31:37.662Z,61736.00
2023-04-03T09:32:37.494Z,45784.00
2023-04-03T09:33:38.691Z,60872.00
2023-04-03T09:34:39.316Z,65535.00
2023-04-03T09:35:47.551Z,65535.00
2023-04-03T09:36:39.885Z,62416.00
2023-04-03T09:37:41.021Z,59888.00
2023-04-03T09:38:38.365Z,63136.00
2023-04-03T09:39:38.598Z,61336.00
2023-04-03T09:40:40.894Z,60112.00
2023-04-03T09:41:40.039Z,65032.00
2023-04-03T09:42:39.832Z,61048.00
2023-04-03T09:43:39.968Z,52584.00
2023-04-03T09:44:39.947Z,57496.00
2023-04-03T09:45:40.554Z,65535.00
2023-04-03T09:46:40.223Z,65535.00
2023-04-03T09:47:40.426Z,65535.00
2023-04-03T09:48:40.552Z,65535.00
2023-04-03T09:49:41.281Z,63880.00
2023-04-03T09:50:40.905Z,65535.00
2023-04-03T09:51:41.071Z,65535.00
2023-04-03T09:52:41.250Z,65535.00
2023-04-03T09:53:43.949Z,65535.00
2023-04-03T09:54:43.224Z,65535.00
2023-04-03T09:55:42.819Z,65535.00
2023-04-03T09:56:43.029Z,65535.00
2023-04-03T09:57:43.566Z,65535.00
2023-04-03T09:58:49.887Z,65535.00
2023-04-03T09:59:42.192Z,65535.00
2023-04-03T10:00:42.515Z,65535.00
2023-04-03T10:01:43.627Z,65535.00
2023-04-03T10:02:42.825Z,61624.00
2023-04-03T10:03:44.888Z,63208.00
2023-04-03T10:04:43.841Z,65535.00
2023-04-03T10:05:42.974Z,65535.00
2023-04-03T10:06:43.039Z,65535.00
2023-04-03T10:07:48.698Z,65535.00
2023-04-03T10:08:45.110Z,65535.00
2023-04-03T10:09:43.273Z,65535.00
2023-04-03T10:10:43.394Z,41248.00
2023-04-03T10:11:44.415Z,65535.00
2023-04-03T10:12:44.955Z,42104.00
2023-04-03T10:13:50.742Z,37952.00
2023-04-03T10:14:45.273Z,65535.00
2023-04-03T10:15:43.881Z,19456.00
2023-04-03T10:16:44.115Z,14518.00
2023-04-03T10:17:44.411Z,13589.00
2023-04-03T10:18:44.662Z,13750.00
2023-04-03T10:19:45.926Z,15233.00
2023-04-03T10:20:47.028Z,15724.00
2023-04-03T10:21:47.100Z,16170.00
2023-04-03T10:22:47.326Z,16797.00
2023-04-03T10:23:45.508Z,65535.00
2023-04-03T10:24:48.147Z,17284.00
2023-04-03T10:25:45.854Z,16850.00
2023-04-03T10:26:47.086Z,16689.00
2023-04-03T10:27:46.924Z,20200.00
2023-04-03T10:28:46.656Z,16901.00
2023-04-03T10:29:48.364Z,15072.00
2023-04-03T10:30:47.244Z,13048.00
2023-04-03T10:31:47.237Z,12720.00
2023-04-03T10:32:47.467Z,13340.00
2023-04-03T10:33:47.810Z,13546.00
2023-04-03T10:34:58.618Z,17512.00
2023-04-03T10:35:48.355Z,19872.00
2023-04-03T10:36:50.513Z,55216.00
2023-04-03T10:37:48.822Z,65535.00
2023-04-03T10:38:48.999Z,65535.00
2023-04-03T10:39:51.118Z,48704.00
2023-04-03T10:40:49.308Z,57136.00
2023-04-03T10:41:52.682Z,34744.00
2023-04-03T10:42:49.597Z,52072.00
2023-04-03T10:43:49.730Z,21480.00
2023-04-03T10:44:49.881Z,19872.00
2023-04-03T10:45:50.179Z,19832.00
2023-04-03T10:46:51.492Z,20080.00
2023-04-03T10:47:50.832Z,27184.00
2023-04-03T10:48:51.140Z,22624.00
2023-04-03T10:49:59.342Z,22752.00
2023-04-03T10:50:52.543Z,22232.00
2023-04-03T10:51:51.919Z,22192.00
2023-04-03T10:52:54.329Z,23216.00
2023-04-03T10:53:52.558Z,65535.00
2023-04-03T10:54:53.759Z,30440.00
2023-04-03T10:55:53.070Z,65535.00
2023-04-03T10:57:04.379Z,21288.00
2023-04-03T10:57:53.290Z,19192.00
2023-04-03T10:58:53.539Z,18640.00
2023-04-03T10:59:55.682Z,19000.00
2023-04-03T11:00:55.833Z,20048.00
2023-04-03T11:01:56.120Z,21896.00
2023-04-03T11:02:56.419Z,24928.00
2023-04-03T11:03:54.535Z,24024.00
2023-04-03T11:04:56.650Z,23216.00
2023-04-03T11:06:55.336Z,21288.00
2023-04-03T11:07:55.724Z,20264.00
2023-04-03T11:08:56.314Z,21264.00
2023-04-03T11:09:55.434Z,40632.00
2023-04-03T11:10:55.515Z,65535.00
2023-04-03T11:11:55.726Z,65535.00
2023-04-03T11:12:55.900Z,35056.00
2023-04-03T11:13:58.107Z,24856.00
2023-04-03T11:14:56.308Z,65535.00
2023-04-03T11:15:56.545Z,65535.00
2023-04-03T11:16:56.686Z,65535.00
2023-04-03T11:17:57.852Z,48344.00
2023-04-03T11:18:57.006Z,22736.00
2023-04-03T11:19:57.158Z,24544.00
2023-04-03T11:20:57.363Z,22744.00
2023-04-03T11:21:57.519Z,20560.00
2023-04-03T11:22:58.460Z,20080.00
2023-04-03T11:23:59.997Z,19200.00
2023-04-03T11:24:58.101Z,18432.00
2023-04-03T11:26:00.178Z,18752.00
2023-04-03T11:26:58.323Z,20368.00
2023-04-03T11:27:58.456Z,29824.00
2023-04-03T11:29:02.582Z,26584.00
2023-04-03T11:29:58.701Z,38784.00
2023-04-03T11:31:00.717Z,20240.00
2023-04-03T11:31:58.985Z,55664.00
2023-04-03T11:32:59.346Z,16289.00
2023-04-03T11:34:01.973Z,14741.00
2023-04-03T11:35:00.543Z,14530.00
2023-04-03T11:36:19.021Z,19736.00
2023-04-03T11:37:00.601Z,16496.00
2023-04-03T11:38:01.437Z,17855.00
2023-04-03T11:39:00.975Z,19240.00
2023-04-03T11:40:00.796Z,20696.00
2023-04-03T11:41:01.438Z,21952.00
2023-04-03T11:42:12.593Z,23480.00
2023-04-03T11:43:04.433Z,24976.00
2023-04-03T11:44:01.834Z,25616.00
2023-04-03T11:45:02.091Z,25480.00
2023-04-03T11:46:02.370Z,25352.00
2023-04-03T11:47:03.147Z,24632.00
2023-04-03T11:48:16.612Z,23328.00
2023-04-03T11:49:03.652Z,22384.00
2023-04-03T11:50:04.417Z,22072.00
2023-04-03T11:51:03.605Z,22656.00
2023-04-03T11:52:03.806Z,23008.00
2023-04-03T11:53:03.915Z,22664.00
2023-04-03T11:54:04.134Z,22480.00
2023-04-03T11:55:06.373Z,22784.00
2023-04-03T11:56:06.057Z,23016.00
2023-04-03T11:57:05.726Z,23240.00
2023-04-03T11:58:05.658Z,24040.00
2023-04-03T11:59:06.426Z,25272.00
2023-04-03T12:00:05.568Z,26944.00
2023-04-03T12:01:05.937Z,29512.00
2023-04-03T12:02:06.346Z,24600.00
2023-04-03T12:03:06.750Z,27664.00
2023-04-03T12:04:08.650Z,24176.00
2023-04-03T12:05:08.014Z,23656.00
2023-04-03T12:06:10.356Z,23224.00
2023-04-03T12:07:08.406Z,21304.00
2023-04-03T12:08:07.604Z,20480.00
2023-04-03T12:09:08.880Z,19632.00
2023-04-03T12:10:11.519Z,19584.00
2023-04-03T12:11:08.988Z,20248.00
2023-04-03T12:12:08.264Z,21784.00
2023-04-03T12:13:09.319Z,22832.00
2023-04-03T12:14:10.734Z,22800.00
2023-04-03T12:15:08.870Z,29520.00
2023-04-03T12:16:11.030Z,19984.00
2023-04-03T12:17:11.314Z,17995.00
2023-04-03T12:18:09.506Z,17186.00
2023-04-03T12:19:09.646Z,17350.00
2023-04-03T12:20:12.220Z,17614.00
2023-04-03T12:21:11.873Z,18102.00
2023-04-03T12:22:11.230Z,18728.00
2023-04-03T12:23:10.498Z,19472.00
2023-04-03T12:24:10.722Z,25832.00
2023-04-03T12:25:10.887Z,22000.00
2023-04-03T12:26:10.988Z,24864.00
2023-04-03T12:27:13.226Z,65535.00